Rorichmoor — V2BV7 — position and weather

sailwx.info

Track history (hours):
 
Tides and Currents Weather Stations Pressure Air Temp Water Temp Dewpoint Dewpoint Depression Visibility Wind Speed Wind Dir Waves Ship Positions

Rorichmoor

Last reported at 2014-Nov-19 15:33 UTC. Time now 2014-Nov-22 10:23 UTC.
Position N 43°16' E 004°59'.

Length 80 m; draft 3.1 m.

Type: Cargo ship. MMSI: 304938000.

Date/timePositionNaut miles runAvg speedWind from/ knotsBaromVisibWave heightAir tempDewpointWater temp
2014-Nov-19 15:33N 43°16' E 004°59'9 9.1
2014-Nov-19 14:32N 43°23' E 004°52'3 2.8
2014-Nov-19 13:32N 43°23' E 004°49'0 0.0
2014-Nov-17 18:33N 43°23' E 004°48'6 6.1
2014-Nov-17 17:33N 43°23' E 004°57'4 3.5
2014-Nov-17 16:34N 43°20' E 004°59'3 3.0
2014-Nov-17 15:33N 43°17' E 005°01'20 4.5
2014-Nov-17 11:09N 42°59' E 004°49'5 8.7
2014-Nov-17 10:33N 42°55' E 004°44'1110.5
2014-Nov-17 09:30N 42°46' E 004°35'7 6.8
2014-Nov-17 08:32N 42°41' E 004°30'11 8.7
2014-Nov-17 07:15N 42°32' E 004°21'82 8.4
2014-Nov-16 21:33N 41°27' E 003°14'10 8.4
2014-Nov-16 20:25N 41°19' E 003°06'8 8.4
2014-Nov-16 19:26N 41°13' E 002°59'32 9.4
2014-Nov-16 16:03N 40°47' E 002°33'5 9.2
2014-Nov-16 15:33N 40°44' E 002°30'9 8.8
2014-Nov-16 14:33N 40°37' E 002°22'9 8.8
2014-Nov-16 13:33N 40°30' E 002°15'9 9.0
2014-Nov-16 12:33N 40°23' E 002°08'9 9.1
2014-Nov-16 11:33N 40°16' E 002°01'9 9.1
2014-Nov-16 10:33N 40°08' E 001°53'9 9.0
2014-Nov-16 09:34N 40°01' E 001°46'9 8.7
2014-Nov-16 08:33N 39°54' E 001°40'163 9.0
2014-Nov-15 14:24N 37°42' W 000°23'  
2014-Nov-12 06:33N 36°01' W 005°23'  
Track history (hours):
 
Tides and Currents Weather Stations Pressure Air Temp Water Temp Dewpoint Dewpoint Depression Visibility Wind Speed Wind Dir Waves Ship Positions

Rorichmoor

Last reported at 2014-Nov-19 15:33 UTC. Time now 2014-Nov-22 10:23 UTC.
Position N 43°16' E 004°59'.

Length 80 m; draft 3.1 m.

Type: Cargo ship. MMSI: 304938000.

Date/timePositionNaut miles runAvg speedWind from/ knotsBaromVisibWave heightAir tempDewpointWater temp
2014-Nov-19 15:33N 43°16' E 004°59'9 9.1
2014-Nov-19 14:32N 43°23' E 004°52'3 2.8
2014-Nov-19 13:32N 43°23' E 004°49'0 0.0
2014-Nov-17 18:33N 43°23' E 004°48'6 6.1
2014-Nov-17 17:33N 43°23' E 004°57'4 3.5
2014-Nov-17 16:34N 43°20' E 004°59'3 3.0
2014-Nov-17 15:33N 43°17' E 005°01'20 4.5
2014-Nov-17 11:09N 42°59' E 004°49'5 8.7
2014-Nov-17 10:33N 42°55' E 004°44'1110.5
2014-Nov-17 09:30N 42°46' E 004°35'7 6.8
2014-Nov-17 08:32N 42°41' E 004°30'11 8.7
2014-Nov-17 07:15N 42°32' E 004°21'82 8.4
2014-Nov-16 21:33N 41°27' E 003°14'10 8.4
2014-Nov-16 20:25N 41°19' E 003°06'8 8.4
2014-Nov-16 19:26N 41°13' E 002°59'32 9.4
2014-Nov-16 16:03N 40°47' E 002°33'5 9.2
2014-Nov-16 15:33N 40°44' E 002°30'9 8.8
2014-Nov-16 14:33N 40°37' E 002°22'9 8.8
2014-Nov-16 13:33N 40°30' E 002°15'9 9.0
2014-Nov-16 12:33N 40°23' E 002°08'9 9.1
2014-Nov-16 11:33N 40°16' E 002°01'9 9.1
2014-Nov-16 10:33N 40°08' E 001°53'9 9.0
2014-Nov-16 09:34N 40°01' E 001°46'9 8.7
2014-Nov-16 08:33N 39°54' E 001°40'163 9.0
2014-Nov-15 14:24N 37°42' W 000°23'  
2014-Nov-12 06:33N 36°01' W 005°23'  

Dump ship's entire track history